HURRICANE DEAN DATA FOR THE 16TH -17TH AUGUST 2007 FORT DE FRANCE - DESAIX (automatic weather station)
WMO No. 97209004 ICAO Id.                
Lat 1437'06'' N Lon 6103'83'' W Alt = 140m (ASL)            
      Hrly max 10 min wind speed Hrly max 1 min wind speed Gusts      
Date Time UTC Wind Dir m/s kts kts m/s kts Time of Gust Hrly MSL Pressure(mb) Hourly Rainfall(mm)
16th August 20:00 050 7 14 16 15 29 19:15 /// 0
21:00 040 6 12 13 14 27 20:15 /// 0,6
22:00 050 7 14 16 13 25 21:45 /// 0
23:00 060 10 19 22 19 37 22:15 /// 6,2
17th August 0:00 050 7 14 16 13 25 23:45 /// 0,4
1:00 030 6 12 13 14 27 0:45 /// 0
2:00 050 6 12 13 17 33 1:15 /// 0
3:00 030 6 12 13 13 25 2:15 /// 0,4
4:00 040 6 12 13 13 25 3:15 /// 0,2
5:00 040 8 16 18 27 52 4:15 /// 7
6:00 050 9 17 20 21 41 5:15 /// 0
7:00 020 12 23 27 24 47 6:45 /// 0,2
8:00 040 15 29 33 27 52 7:45 /// 2
9:00 050 19 37 42 34 66 8:15 /// 3,80
10:00 060 24 47 53 43 84 9:45 /// 9,20
11:00 070 33 64 73 51 99 10:15 /// 2,20
12:00 110 23 45 51 40 78 11:15 /// 0,80
13:00 110 22 43 49 36 70 12:15 /// ///
14:00 120 18 35 40 29 56 13:15 /// ///
15:00 120 13 25 29 25 49 14:15 /// ///
16:00 130 10 19 22 21 41 15:45 /// ///
17:00 120 10 19 22 18 35 16:15 /// ///
18:00 120 10 19 22 18 35 17:15 /// ///
19:00 110 7 14 16 11 21 18:15 /// ///
20:00 100 7 14 16 10 19 19:45 /// ///
Date Time UTC Wind Dir m/s km/h km/h m/s km/h Time of Gust
16th August 20:00 050 7 25 29 15 54 19:15
21:00 040 6 22 25 14 50 20:15
22:00 050 7 25 29 13 47 21:45
23:00 060 10 36 41 19 68 22:15
17th August 0:00 050 7 25 29 13 47 23:45
1:00 030 6 22 25 14 50 0:45
2:00 050 6 22 25 17 61 1:15
3:00 030 6 22 25 13 47 2:15
4:00 040 6 22 25 13 47 3:15
5:00 040 8 29 33 27 97 4:15
6:00 050 9 32 37 21 76 5:15
7:00 020 12 43 49 24 86 6:45
8:00 040 15 54 62 27 97 7:45
9:00 050 19 68 78 34 122 8:15
10:00 060 24 86 98 43 155 9:45
11:00 070 33 119 135 51 184 10:15
12:00 110 23 83 94 40 144 11:15
13:00 110 22 79 90 36 130 12:15
14:00 120 18 65 74 29 104 13:15
15:00 120 13 47 53 25 90 14:15
16:00 130 10 36 41 21 76 15:45
17:00 120 10 36 41 18 65 16:15
18:00 120 10 36 41 18 65 17:15
19:00 110 7 25 29 11 40 18:15
20:00 100 7 25 29 10 36 19:45